sensor_id;sensor_type;location;lat;lon;timestamp;P1;durP1;ratioP1;P2;durP2;ratioP2
47219;SDS011;32961;51.936;4.788;2023-04-15T00:02:26;8.75;;;2.72;;
47219;SDS011;32961;51.936;4.788;2023-04-15T00:04:54;11.13;;;3.10;;
47219;SDS011;32961;51.936;4.788;2023-04-15T00:07:22;14.50;;;3.25;;
47219;SDS011;32961;51.936;4.788;2023-04-15T00:09:50;15.25;;;2.92;;
47219;SDS011;32961;51.936;4.788;2023-04-15T00:12:20;10.75;;;3.00;;
47219;SDS011;32961;51.936;4.788;2023-04-15T00:14:48;7.60;;;3.03;;
47219;SDS011;32961;51.936;4.788;2023-04-15T00:17:16;9.52;;;2.92;;
47219;SDS011;32961;51.936;4.788;2023-04-15T00:19:45;10.27;;;3.15;;
47219;SDS011;32961;51.936;4.788;2023-04-15T00:22:13;11.40;;;4.15;;
47219;SDS011;32961;51.936;4.788;2023-04-15T00:24:41;9.00;;;3.33;;
47219;SDS011;32961;51.936;4.788;2023-04-15T00:27:09;8.35;;;3.30;;
47219;SDS011;32961;51.936;4.788;2023-04-15T00:29:37;7.43;;;3.05;;
47219;SDS011;32961;51.936;4.788;2023-04-15T00:32:05;5.43;;;2.92;;
47219;SDS011;32961;51.936;4.788;2023-04-15T00:34:34;9.65;;;3.40;;
47219;SDS011;32961;51.936;4.788;2023-04-15T00:37:03;9.00;;;3.60;;
47219;SDS011;32961;51.936;4.788;2023-04-15T00:39:31;12.27;;;3.83;;
47219;SDS011;32961;51.936;4.788;2023-04-15T00:41:59;12.15;;;3.53;;
47219;SDS011;32961;51.936;4.788;2023-04-15T00:44:27;8.45;;;3.60;;
47219;SDS011;32961;51.936;4.788;2023-04-15T00:46:55;7.32;;;3.10;;
47219;SDS011;32961;51.936;4.788;2023-04-15T00:49:23;10.40;;;3.25;;
47219;SDS011;32961;51.936;4.788;2023-04-15T00:51:52;12.38;;;3.42;;
47219;SDS011;32961;51.936;4.788;2023-04-15T00:54:21;10.48;;;3.92;;
47219;SDS011;32961;51.936;4.788;2023-04-15T00:56:49;10.43;;;3.70;;
47219;SDS011;32961;51.936;4.788;2023-04-15T00:59:17;10.63;;;3.42;;
47219;SDS011;32961;51.936;4.788;2023-04-15T01:01:45;6.10;;;3.15;;
47219;SDS011;32961;51.936;4.788;2023-04-15T01:04:14;9.70;;;3.28;;
47219;SDS011;32961;51.936;4.788;2023-04-15T01:06:42;13.32;;;3.53;;
47219;SDS011;32961;51.936;4.788;2023-04-15T01:09:10;15.13;;;4.45;;
47219;SDS011;32961;51.936;4.788;2023-04-15T01:11:39;9.02;;;3.42;;
47219;SDS011;32961;51.936;4.788;2023-04-15T01:14:07;7.60;;;3.40;;
47219;SDS011;32961;51.936;4.788;2023-04-15T01:16:36;9.18;;;4.03;;
47219;SDS011;32961;51.936;4.788;2023-04-15T01:19:05;11.07;;;4.05;;
47219;SDS011;32961;51.936;4.788;2023-04-15T01:21:35;7.40;;;3.55;;
47219;SDS011;32961;51.936;4.788;2023-04-15T01:24:04;10.38;;;3.80;;
47219;SDS011;32961;51.936;4.788;2023-04-15T01:26:38;9.55;;;3.75;;
47219;SDS011;32961;51.936;4.788;2023-04-15T01:29:09;9.05;;;4.53;;
47219;SDS011;32961;51.936;4.788;2023-04-15T01:31:37;7.15;;;3.80;;
47219;SDS011;32961;51.936;4.788;2023-04-15T01:34:05;8.05;;;3.65;;
47219;SDS011;32961;51.936;4.788;2023-04-15T01:36:35;10.60;;;4.22;;
47219;SDS011;32961;51.936;4.788;2023-04-15T01:39:03;9.50;;;4.00;;
47219;SDS011;32961;51.936;4.788;2023-04-15T01:41:31;8.60;;;3.90;;
47219;SDS011;32961;51.936;4.788;2023-04-15T01:44:01;10.55;;;4.78;;
47219;SDS011;32961;51.936;4.788;2023-04-15T01:46:28;5.78;;;3.75;;
47219;SDS011;32961;51.936;4.788;2023-04-15T01:48:56;10.13;;;4.22;;
47219;SDS011;32961;51.936;4.788;2023-04-15T01:51:24;10.35;;;5.40;;
47219;SDS011;32961;51.936;4.788;2023-04-15T01:53:52;12.30;;;4.00;;
47219;SDS011;32961;51.936;4.788;2023-04-15T01:56:22;8.60;;;4.22;;
47219;SDS011;32961;51.936;4.788;2023-04-15T01:58:50;12.27;;;4.82;;
47219;SDS011;32961;51.936;4.788;2023-04-15T02:01:19;9.38;;;4.78;;
47219;SDS011;32961;51.936;4.788;2023-04-15T02:03:47;8.35;;;4.40;;
47219;SDS011;32961;51.936;4.788;2023-04-15T02:06:16;12.40;;;4.60;;
47219;SDS011;32961;51.936;4.788;2023-04-15T02:08:46;9.77;;;4.80;;
47219;SDS011;32961;51.936;4.788;2023-04-15T02:11:14;11.13;;;4.45;;
47219;SDS011;32961;51.936;4.788;2023-04-15T02:13:41;10.98;;;4.40;;
47219;SDS011;32961;51.936;4.788;2023-04-15T02:16:15;8.90;;;4.15;;
47219;SDS011;32961;51.936;4.788;2023-04-15T02:18:45;7.82;;;4.32;;
47219;SDS011;32961;51.936;4.788;2023-04-15T02:21:13;9.07;;;4.50;;
47219;SDS011;32961;51.936;4.788;2023-04-15T02:23:41;12.23;;;4.80;;
47219;SDS011;32961;51.936;4.788;2023-04-15T02:26:09;8.85;;;4.60;;
47219;SDS011;32961;51.936;4.788;2023-04-15T02:28:37;9.90;;;4.10;;
47219;SDS011;32961;51.936;4.788;2023-04-15T02:31:05;14.55;;;5.40;;
47219;SDS011;32961;51.936;4.788;2023-04-15T02:33:33;9.43;;;5.10;;
47219;SDS011;32961;51.936;4.788;2023-04-15T02:36:04;9.82;;;4.63;;
47219;SDS011;32961;51.936;4.788;2023-04-15T02:38:32;9.38;;;4.82;;
47219;SDS011;32961;51.936;4.788;2023-04-15T02:41:00;9.60;;;5.32;;
47219;SDS011;32961;51.936;4.788;2023-04-15T02:43:28;13.45;;;4.45;;
47219;SDS011;32961;51.936;4.788;2023-04-15T02:45:56;9.65;;;4.25;;
47219;SDS011;32961;51.936;4.788;2023-04-15T02:48:24;11.80;;;4.80;;
47219;SDS011;32961;51.936;4.788;2023-04-15T02:50:52;9.30;;;5.03;;
47219;SDS011;32961;51.936;4.788;2023-04-15T02:53:21;7.97;;;4.88;;
47219;SDS011;32961;51.936;4.788;2023-04-15T02:55:49;8.50;;;5.15;;
47219;SDS011;32961;51.936;4.788;2023-04-15T02:58:16;12.70;;;5.35;;
47219;SDS011;32961;51.936;4.788;2023-04-15T03:00:44;11.88;;;4.95;;
47219;SDS011;32961;51.936;4.788;2023-04-15T03:03:12;7.38;;;4.55;;
47219;SDS011;32961;51.936;4.788;2023-04-15T03:06:19;9.93;;;5.07;;
47219;SDS011;32961;51.936;4.788;2023-04-15T03:08:40;9.52;;;5.28;;
47219;SDS011;32961;51.936;4.788;2023-04-15T03:14:27;12.70;;;4.68;;
47219;SDS011;32961;51.936;4.788;2023-04-15T03:17:09;9.65;;;5.47;;
47219;SDS011;32961;51.936;4.788;2023-04-15T03:20:09;16.88;;;5.03;;
47219;SDS011;32961;51.936;4.788;2023-04-15T03:22:39;10.13;;;5.80;;
47219;SDS011;32961;51.936;4.788;2023-04-15T03:25:08;9.18;;;5.40;;
47219;SDS011;32961;51.936;4.788;2023-04-15T03:30:22;12.35;;;5.28;;
47219;SDS011;32961;51.936;4.788;2023-04-15T03:33:06;10.18;;;5.45;;
47219;SDS011;32961;51.936;4.788;2023-04-15T03:35:59;15.30;;;5.45;;
47219;SDS011;32961;51.936;4.788;2023-04-15T03:38:27;15.45;;;5.20;;
47219;SDS011;32961;51.936;4.788;2023-04-15T03:40:56;9.23;;;5.53;;
47219;SDS011;32961;51.936;4.788;2023-04-15T03:43:24;11.60;;;4.88;;
47219;SDS011;32961;51.936;4.788;2023-04-15T03:46:15;11.65;;;5.35;;
47219;SDS011;32961;51.936;4.788;2023-04-15T03:48:43;8.60;;;4.93;;
47219;SDS011;32961;51.936;4.788;2023-04-15T03:51:11;8.63;;;5.45;;
47219;SDS011;32961;51.936;4.788;2023-04-15T03:53:39;13.43;;;5.28;;
47219;SDS011;32961;51.936;4.788;2023-04-15T03:56:08;7.65;;;5.25;;
47219;SDS011;32961;51.936;4.788;2023-04-15T03:58:39;9.73;;;5.20;;
47219;SDS011;32961;51.936;4.788;2023-04-15T04:01:11;10.00;;;5.38;;
47219;SDS011;32961;51.936;4.788;2023-04-15T04:03:40;11.30;;;5.50;;
47219;SDS011;32961;51.936;4.788;2023-04-15T04:06:11;8.63;;;5.78;;
47219;SDS011;32961;51.936;4.788;2023-04-15T04:08:39;11.63;;;5.85;;
47219;SDS011;32961;51.936;4.788;2023-04-15T04:11:06;9.13;;;5.38;;
47219;SDS011;32961;51.936;4.788;2023-04-15T04:13:36;12.98;;;6.55;;
47219;SDS011;32961;51.936;4.788;2023-04-15T04:16:04;9.05;;;5.32;;
47219;SDS011;32961;51.936;4.788;2023-04-15T04:18:32;8.23;;;5.55;;
47219;SDS011;32961;51.936;4.788;2023-04-15T04:21:00;11.75;;;6.03;;
47219;SDS011;32961;51.936;4.788;2023-04-15T04:23:28;11.43;;;5.63;;
47219;SDS011;32961;51.936;4.788;2023-04-15T04:25:56;7.93;;;5.80;;
47219;SDS011;32961;51.936;4.788;2023-04-15T04:28:25;11.50;;;6.10;;
47219;SDS011;32961;51.936;4.788;2023-04-15T04:30:53;9.40;;;6.00;;
47219;SDS011;32961;51.936;4.788;2023-04-15T04:33:22;14.23;;;7.68;;
47219;SDS011;32961;51.936;4.788;2023-04-15T04:35:52;12.35;;;6.38;;
47219;SDS011;32961;51.936;4.788;2023-04-15T04:38:20;11.52;;;6.20;;
47219;SDS011;32961;51.936;4.788;2023-04-15T04:40:48;12.70;;;6.13;;
47219;SDS011;32961;51.936;4.788;2023-04-15T04:43:16;11.77;;;6.88;;
47219;SDS011;32961;51.936;4.788;2023-04-15T04:45:45;14.35;;;7.72;;
47219;SDS011;32961;51.936;4.788;2023-04-15T04:48:13;10.30;;;6.03;;
47219;SDS011;32961;51.936;4.788;2023-04-15T04:50:42;20.00;;;6.70;;
47219;SDS011;32961;51.936;4.788;2023-04-15T04:53:12;11.23;;;6.10;;
47219;SDS011;32961;51.936;4.788;2023-04-15T04:55:40;10.50;;;6.35;;
47219;SDS011;32961;51.936;4.788;2023-04-15T04:58:08;9.63;;;5.80;;
47219;SDS011;32961;51.936;4.788;2023-04-15T05:00:35;11.60;;;6.13;;
47219;SDS011;32961;51.936;4.788;2023-04-15T05:03:05;9.80;;;6.30;;
47219;SDS011;32961;51.936;4.788;2023-04-15T05:05:33;8.13;;;5.60;;
47219;SDS011;32961;51.936;4.788;2023-04-15T05:08:02;14.85;;;6.50;;
47219;SDS011;32961;51.936;4.788;2023-04-15T05:10:30;10.63;;;6.22;;
47219;SDS011;32961;51.936;4.788;2023-04-15T05:12:58;9.60;;;5.75;;
47219;SDS011;32961;51.936;4.788;2023-04-15T05:15:25;8.93;;;5.82;;
47219;SDS011;32961;51.936;4.788;2023-04-15T05:17:53;12.27;;;6.28;;
47219;SDS011;32961;51.936;4.788;2023-04-15T05:20:23;10.68;;;6.05;;
47219;SDS011;32961;51.936;4.788;2023-04-15T05:22:51;10.68;;;6.45;;
47219;SDS011;32961;51.936;4.788;2023-04-15T05:25:19;8.65;;;6.15;;
47219;SDS011;32961;51.936;4.788;2023-04-15T05:27:46;15.85;;;7.47;;
47219;SDS011;32961;51.936;4.788;2023-04-15T05:30:14;11.50;;;6.38;;
47219;SDS011;32961;51.936;4.788;2023-04-15T05:32:42;10.55;;;6.13;;
47219;SDS011;32961;51.936;4.788;2023-04-15T05:35:10;11.95;;;6.72;;
47219;SDS011;32961;51.936;4.788;2023-04-15T05:37:39;10.65;;;6.35;;
47219;SDS011;32961;51.936;4.788;2023-04-15T05:40:07;9.05;;;6.57;;
47219;SDS011;32961;51.936;4.788;2023-04-15T05:42:35;15.90;;;6.65;;
47219;SDS011;32961;51.936;4.788;2023-04-15T05:45:04;14.07;;;6.78;;
47219;SDS011;32961;51.936;4.788;2023-04-15T05:47:34;10.95;;;6.25;;
47219;SDS011;32961;51.936;4.788;2023-04-15T05:50:02;12.38;;;6.57;;
47219;SDS011;32961;51.936;4.788;2023-04-15T05:52:31;12.02;;;6.40;;
47219;SDS011;32961;51.936;4.788;2023-04-15T05:55:01;13.60;;;6.15;;
47219;SDS011;32961;51.936;4.788;2023-04-15T05:57:29;10.93;;;6.65;;
47219;SDS011;32961;51.936;4.788;2023-04-15T05:59:56;12.85;;;6.80;;
47219;SDS011;32961;51.936;4.788;2023-04-15T06:02:24;11.52;;;6.70;;
47219;SDS011;32961;51.936;4.788;2023-04-15T06:04:53;10.38;;;7.13;;
47219;SDS011;32961;51.936;4.788;2023-04-15T06:07:21;8.93;;;5.93;;
47219;SDS011;32961;51.936;4.788;2023-04-15T06:09:49;13.90;;;6.68;;
47219;SDS011;32961;51.936;4.788;2023-04-15T06:12:18;13.07;;;7.38;;
47219;SDS011;32961;51.936;4.788;2023-04-15T06:14:46;11.85;;;6.85;;
47219;SDS011;32961;51.936;4.788;2023-04-15T06:17:13;12.10;;;7.18;;
47219;SDS011;32961;51.936;4.788;2023-04-15T06:19:43;13.93;;;7.80;;
47219;SDS011;32961;51.936;4.788;2023-04-15T06:22:11;15.80;;;8.25;;
47219;SDS011;32961;51.936;4.788;2023-04-15T06:24:39;14.13;;;9.13;;
47219;SDS011;32961;51.936;4.788;2023-04-15T06:27:07;10.95;;;7.00;;
47219;SDS011;32961;51.936;4.788;2023-04-15T06:29:36;11.30;;;7.57;;
47219;SDS011;32961;51.936;4.788;2023-04-15T06:32:04;10.95;;;7.63;;
47219;SDS011;32961;51.936;4.788;2023-04-15T06:34:33;14.52;;;7.78;;
47219;SDS011;32961;51.936;4.788;2023-04-15T06:37:00;14.52;;;6.75;;
47219;SDS011;32961;51.936;4.788;2023-04-15T06:39:31;10.55;;;7.50;;
47219;SDS011;32961;51.936;4.788;2023-04-15T06:41:59;15.10;;;7.78;;
47219;SDS011;32961;51.936;4.788;2023-04-15T06:44:27;14.57;;;7.13;;
47219;SDS011;32961;51.936;4.788;2023-04-15T06:47:00;10.52;;;7.13;;
47219;SDS011;32961;51.936;4.788;2023-04-15T06:49:28;11.07;;;7.05;;
47219;SDS011;32961;51.936;4.788;2023-04-15T06:51:56;12.73;;;7.43;;
47219;SDS011;32961;51.936;4.788;2023-04-15T06:54:23;8.57;;;6.55;;
47219;SDS011;32961;51.936;4.788;2023-04-15T06:56:51;10.50;;;6.90;;
47219;SDS011;32961;51.936;4.788;2023-04-15T06:59:22;12.38;;;7.10;;
47219;SDS011;32961;51.936;4.788;2023-04-15T07:01:52;10.55;;;7.57;;
47219;SDS011;32961;51.936;4.788;2023-04-15T07:04:21;11.88;;;7.80;;
47219;SDS011;32961;51.936;4.788;2023-04-15T07:06:49;11.32;;;7.78;;
47219;SDS011;32961;51.936;4.788;2023-04-15T07:09:17;9.48;;;6.97;;
47219;SDS011;32961;51.936;4.788;2023-04-15T07:11:45;8.80;;;7.13;;
47219;SDS011;32961;51.936;4.788;2023-04-15T07:14:14;10.48;;;7.20;;
47219;SDS011;32961;51.936;4.788;2023-04-15T07:16:41;11.20;;;7.43;;
47219;SDS011;32961;51.936;4.788;2023-04-15T07:19:09;12.07;;;6.85;;
47219;SDS011;32961;51.936;4.788;2023-04-15T07:21:39;8.57;;;6.55;;
47219;SDS011;32961;51.936;4.788;2023-04-15T07:24:07;9.00;;;6.68;;
47219;SDS011;32961;51.936;4.788;2023-04-15T07:26:37;9.73;;;6.90;;
47219;SDS011;32961;51.936;4.788;2023-04-15T07:29:05;10.52;;;7.13;;
47219;SDS011;32961;51.936;4.788;2023-04-15T07:31:33;10.35;;;7.78;;
47219;SDS011;32961;51.936;4.788;2023-04-15T07:34:02;14.13;;;6.60;;
47219;SDS011;32961;51.936;4.788;2023-04-15T07:36:30;10.05;;;6.63;;
47219;SDS011;32961;51.936;4.788;2023-04-15T07:38:59;8.32;;;6.50;;
47219;SDS011;32961;51.936;4.788;2023-04-15T07:41:29;11.73;;;7.15;;
47219;SDS011;32961;51.936;4.788;2023-04-15T07:43:57;9.93;;;6.40;;
47219;SDS011;32961;51.936;4.788;2023-04-15T07:46:26;9.65;;;6.93;;
47219;SDS011;32961;51.936;4.788;2023-04-15T07:48:54;8.50;;;6.55;;
47219;SDS011;32961;51.936;4.788;2023-04-15T07:51:25;9.05;;;6.68;;
47219;SDS011;32961;51.936;4.788;2023-04-15T07:53:54;10.10;;;6.95;;
47219;SDS011;32961;51.936;4.788;2023-04-15T07:56:27;9.23;;;6.72;;
47219;SDS011;32961;51.936;4.788;2023-04-15T07:58:57;7.28;;;6.32;;
47219;SDS011;32961;51.936;4.788;2023-04-15T08:01:27;8.07;;;5.57;;
47219;SDS011;32961;51.936;4.788;2023-04-15T08:03:55;8.23;;;5.85;;
47219;SDS011;32961;51.936;4.788;2023-04-15T08:06:24;9.85;;;6.13;;
47219;SDS011;32961;51.936;4.788;2023-04-15T08:08:52;10.95;;;5.82;;
47219;SDS011;32961;51.936;4.788;2023-04-15T08:11:20;7.40;;;5.53;;
47219;SDS011;32961;51.936;4.788;2023-04-15T08:13:51;8.63;;;5.57;;
47219;SDS011;32961;51.936;4.788;2023-04-15T08:16:19;8.63;;;5.75;;
47219;SDS011;32961;51.936;4.788;2023-04-15T08:18:52;7.07;;;4.82;;
47219;SDS011;32961;51.936;4.788;2023-04-15T08:21:21;6.90;;;4.95;;
47219;SDS011;32961;51.936;4.788;2023-04-15T08:23:56;11.07;;;4.38;;
47219;SDS011;32961;51.936;4.788;2023-04-15T08:26:27;5.70;;;4.78;;
47219;SDS011;32961;51.936;4.788;2023-04-15T08:28:56;9.35;;;5.20;;
47219;SDS011;32961;51.936;4.788;2023-04-15T08:31:25;6.05;;;4.65;;
47219;SDS011;32961;51.936;4.788;2023-04-15T08:33:56;7.03;;;5.25;;
47219;SDS011;32961;51.936;4.788;2023-04-15T08:36:27;6.68;;;5.00;;
47219;SDS011;32961;51.936;4.788;2023-04-15T08:38:54;5.53;;;4.70;;
47219;SDS011;32961;51.936;4.788;2023-04-15T08:41:23;7.38;;;5.47;;
47219;SDS011;32961;51.936;4.788;2023-04-15T08:43:52;9.80;;;5.63;;
47219;SDS011;32961;51.936;4.788;2023-04-15T08:46:28;8.25;;;5.10;;
47219;SDS011;32961;51.936;4.788;2023-04-15T08:49:10;8.00;;;4.57;;
47219;SDS011;32961;51.936;4.788;2023-04-15T08:51:39;7.78;;;5.00;;
47219;SDS011;32961;51.936;4.788;2023-04-15T08:54:07;7.10;;;5.30;;
47219;SDS011;32961;51.936;4.788;2023-04-15T08:56:37;9.73;;;5.55;;
47219;SDS011;32961;51.936;4.788;2023-04-15T08:59:08;7.85;;;5.40;;
47219;SDS011;32961;51.936;4.788;2023-04-15T09:01:39;8.32;;;5.80;;
47219;SDS011;32961;51.936;4.788;2023-04-15T09:04:07;10.90;;;5.63;;
47219;SDS011;32961;51.936;4.788;2023-04-15T09:06:35;9.57;;;5.63;;
47219;SDS011;32961;51.936;4.788;2023-04-15T09:09:03;9.38;;;5.28;;
47219;SDS011;32961;51.936;4.788;2023-04-15T09:11:31;6.93;;;4.50;;
47219;SDS011;32961;51.936;4.788;2023-04-15T09:14:01;12.43;;;4.75;;
47219;SDS011;32961;51.936;4.788;2023-04-15T09:16:29;10.07;;;4.70;;
47219;SDS011;32961;51.936;4.788;2023-04-15T09:18:59;6.43;;;3.65;;
47219;SDS011;32961;51.936;4.788;2023-04-15T09:21:27;7.63;;;3.80;;
47219;SDS011;32961;51.936;4.788;2023-04-15T09:23:59;7.47;;;4.28;;
47219;SDS011;32961;51.936;4.788;2023-04-15T09:26:34;7.95;;;3.53;;
47219;SDS011;32961;51.936;4.788;2023-04-15T09:29:06;10.63;;;4.03;;
47219;SDS011;32961;51.936;4.788;2023-04-15T09:31:35;11.75;;;3.85;;
47219;SDS011;32961;51.936;4.788;2023-04-15T09:34:05;7.57;;;3.83;;
47219;SDS011;32961;51.936;4.788;2023-04-15T09:36:51;6.97;;;3.67;;
47219;SDS011;32961;51.936;4.788;2023-04-15T09:39:22;5.95;;;3.35;;
47219;SDS011;32961;51.936;4.788;2023-04-15T09:42:06;7.18;;;3.63;;
47219;SDS011;32961;51.936;4.788;2023-04-15T09:44:34;7.40;;;3.63;;
47219;SDS011;32961;51.936;4.788;2023-04-15T09:47:01;9.10;;;4.00;;
47219;SDS011;32961;51.936;4.788;2023-04-15T09:49:31;7.93;;;4.55;;
47219;SDS011;32961;51.936;4.788;2023-04-15T09:52:03;6.30;;;4.32;;
47219;SDS011;32961;51.936;4.788;2023-04-15T09:54:32;8.27;;;4.25;;
47219;SDS011;32961;51.936;4.788;2023-04-15T09:57:05;9.18;;;5.10;;
47219;SDS011;32961;51.936;4.788;2023-04-15T09:59:37;6.35;;;3.67;;
47219;SDS011;32961;51.936;4.788;2023-04-15T10:02:07;5.28;;;3.40;;
47219;SDS011;32961;51.936;4.788;2023-04-15T10:04:38;5.40;;;2.58;;
47219;SDS011;32961;51.936;4.788;2023-04-15T10:07:08;4.53;;;2.70;;
47219;SDS011;32961;51.936;4.788;2023-04-15T10:09:42;4.80;;;2.60;;
47219;SDS011;32961;51.936;4.788;2023-04-15T10:12:12;7.82;;;2.63;;
47219;SDS011;32961;51.936;4.788;2023-04-15T10:14:44;5.82;;;2.42;;
47219;SDS011;32961;51.936;4.788;2023-04-15T10:17:20;6.45;;;2.17;;
47219;SDS011;32961;51.936;4.788;2023-04-15T10:19:53;5.75;;;2.85;;
47219;SDS011;32961;51.936;4.788;2023-04-15T10:24:52;9.52;;;5.15;;
47219;SDS011;32961;51.936;4.788;2023-04-15T10:27:20;7.88;;;3.65;;
47219;SDS011;32961;51.936;4.788;2023-04-15T10:29:49;7.63;;;3.60;;
47219;SDS011;32961;51.936;4.788;2023-04-15T10:32:18;5.93;;;3.38;;
47219;SDS011;32961;51.936;4.788;2023-04-15T10:34:55;6.80;;;3.30;;
47219;SDS011;32961;51.936;4.788;2023-04-15T10:37:32;5.22;;;3.20;;
47219;SDS011;32961;51.936;4.788;2023-04-15T10:40:10;4.65;;;2.70;;
47219;SDS011;32961;51.936;4.788;2023-04-15T10:42:51;3.30;;;2.33;;
47219;SDS011;32961;51.936;4.788;2023-04-15T10:45:19;2.17;;;1.98;;
47219;SDS011;32961;51.936;4.788;2023-04-15T10:47:50;4.60;;;2.80;;
47219;SDS011;32961;51.936;4.788;2023-04-15T10:50:24;3.08;;;2.03;;
47219;SDS011;32961;51.936;4.788;2023-04-15T10:52:53;3.88;;;1.70;;
47219;SDS011;32961;51.936;4.788;2023-04-15T10:55:26;3.35;;;1.60;;
47219;SDS011;32961;51.936;4.788;2023-04-15T10:57:59;3.50;;;1.23;;
47219;SDS011;32961;51.936;4.788;2023-04-15T11:00:29;3.80;;;2.10;;
47219;SDS011;32961;51.936;4.788;2023-04-15T11:02:58;2.40;;;2.20;;
47219;SDS011;32961;51.936;4.788;2023-04-15T11:14:38;4.55;;;2.53;;
47219;SDS011;32961;51.936;4.788;2023-04-15T11:17:10;4.85;;;2.58;;
47219;SDS011;32961;51.936;4.788;2023-04-15T11:19:41;6.72;;;3.20;;
47219;SDS011;32961;51.936;4.788;2023-04-15T11:22:10;6.55;;;3.50;;
47219;SDS011;32961;51.936;4.788;2023-04-15T11:24:47;4.78;;;2.80;;
47219;SDS011;32961;51.936;4.788;2023-04-15T11:27:23;4.88;;;2.85;;
47219;SDS011;32961;51.936;4.788;2023-04-15T11:29:51;4.78;;;3.13;;
47219;SDS011;32961;51.936;4.788;2023-04-15T11:32:20;7.18;;;5.40;;
47219;SDS011;32961;51.936;4.788;2023-04-15T11:34:48;5.10;;;3.40;;
47219;SDS011;32961;51.936;4.788;2023-04-15T11:37:18;10.02;;;3.60;;
47219;SDS011;32961;51.936;4.788;2023-04-15T11:39:56;4.60;;;3.30;;
47219;SDS011;32961;51.936;4.788;2023-04-15T11:42:24;9.75;;;4.90;;
47219;SDS011;32961;51.936;4.788;2023-04-15T11:45:11;4.80;;;3.42;;
47219;SDS011;32961;51.936;4.788;2023-04-15T11:47:41;7.10;;;3.55;;
47219;SDS011;32961;51.936;4.788;2023-04-15T11:50:13;5.70;;;3.60;;
47219;SDS011;32961;51.936;4.788;2023-04-15T11:52:51;5.40;;;3.17;;
47219;SDS011;32961;51.936;4.788;2023-04-15T11:55:20;6.22;;;3.60;;
47219;SDS011;32961;51.936;4.788;2023-04-15T11:57:52;9.13;;;3.78;;
47219;SDS011;32961;51.936;4.788;2023-04-15T12:00:33;7.03;;;3.37;;
47219;SDS011;32961;51.936;4.788;2023-04-15T12:03:12;7.22;;;3.50;;
47219;SDS011;32961;51.936;4.788;2023-04-15T12:08:46;5.82;;;3.05;;
47219;SDS011;32961;51.936;4.788;2023-04-15T12:11:16;6.60;;;3.88;;
47219;SDS011;32961;51.936;4.788;2023-04-15T12:13:47;6.60;;;3.08;;
47219;SDS011;32961;51.936;4.788;2023-04-15T12:16:16;7.13;;;3.20;;
47219;SDS011;32961;51.936;4.788;2023-04-15T12:18:50;4.32;;;3.08;;
47219;SDS011;32961;51.936;4.788;2023-04-15T12:21:19;4.82;;;2.95;;
47219;SDS011;32961;51.936;4.788;2023-04-15T12:23:47;6.63;;;3.28;;
47219;SDS011;32961;51.936;4.788;2023-04-15T12:26:24;4.32;;;2.40;;
47219;SDS011;32961;51.936;4.788;2023-04-15T12:29:07;3.85;;;2.50;;
47219;SDS011;32961;51.936;4.788;2023-04-15T12:31:37;7.05;;;2.30;;
47219;SDS011;32961;51.936;4.788;2023-04-15T12:34:13;5.13;;;2.55;;
47219;SDS011;32961;51.936;4.788;2023-04-15T12:36:44;8.57;;;2.67;;
47219;SDS011;32961;51.936;4.788;2023-04-15T12:39:12;4.78;;;2.20;;
47219;SDS011;32961;51.936;4.788;2023-04-15T12:41:41;4.22;;;2.20;;
47219;SDS011;32961;51.936;4.788;2023-04-15T12:44:10;7.35;;;2.90;;
47219;SDS011;32961;51.936;4.788;2023-04-15T12:46:38;4.00;;;2.33;;
47219;SDS011;32961;51.936;4.788;2023-04-15T12:49:07;6.35;;;2.40;;
47219;SDS011;32961;51.936;4.788;2023-04-15T12:51:39;4.53;;;2.50;;
47219;SDS011;32961;51.936;4.788;2023-04-15T12:54:10;4.95;;;2.38;;
47219;SDS011;32961;51.936;4.788;2023-04-15T12:56:43;6.53;;;2.42;;
47219;SDS011;32961;51.936;4.788;2023-04-15T12:59:11;3.72;;;2.33;;
47219;SDS011;32961;51.936;4.788;2023-04-15T13:01:39;2.88;;;2.25;;
47219;SDS011;32961;51.936;4.788;2023-04-15T13:04:09;5.07;;;2.40;;
47219;SDS011;32961;51.936;4.788;2023-04-15T13:06:37;4.53;;;2.15;;
47219;SDS011;32961;51.936;4.788;2023-04-15T13:09:05;4.22;;;2.20;;
47219;SDS011;32961;51.936;4.788;2023-04-15T13:11:33;3.83;;;2.47;;
47219;SDS011;32961;51.936;4.788;2023-04-15T13:14:03;4.97;;;2.10;;
47219;SDS011;32961;51.936;4.788;2023-04-15T13:16:32;3.95;;;1.92;;
47219;SDS011;32961;51.936;4.788;2023-04-15T13:19:02;3.35;;;1.83;;
47219;SDS011;32961;51.936;4.788;2023-04-15T13:21:33;3.83;;;1.63;;
47219;SDS011;32961;51.936;4.788;2023-04-15T13:24:02;5.45;;;1.88;;
47219;SDS011;32961;51.936;4.788;2023-04-15T13:26:32;2.13;;;1.40;;
47219;SDS011;32961;51.936;4.788;2023-04-15T13:29:02;3.13;;;1.70;;
47219;SDS011;32961;51.936;4.788;2023-04-15T13:31:30;3.97;;;1.45;;
47219;SDS011;32961;51.936;4.788;2023-04-15T13:33:58;3.05;;;1.40;;
47219;SDS011;32961;51.936;4.788;2023-04-15T13:36:26;5.63;;;1.75;;
47219;SDS011;32961;51.936;4.788;2023-04-15T13:38:54;4.38;;;1.58;;
47219;SDS011;32961;51.936;4.788;2023-04-15T13:41:22;3.45;;;1.73;;
47219;SDS011;32961;51.936;4.788;2023-04-15T13:43:51;2.75;;;1.45;;
47219;SDS011;32961;51.936;4.788;2023-04-15T13:46:20;2.63;;;1.50;;
47219;SDS011;32961;51.936;4.788;2023-04-15T13:48:48;4.85;;;1.67;;
47219;SDS011;32961;51.936;4.788;2023-04-15T13:51:16;3.13;;;1.52;;
47219;SDS011;32961;51.936;4.788;2023-04-15T13:53:44;3.67;;;1.50;;
47219;SDS011;32961;51.936;4.788;2023-04-15T13:56:12;4.85;;;1.50;;
47219;SDS011;32961;51.936;4.788;2023-04-15T13:58:40;2.78;;;1.27;;
47219;SDS011;32961;51.936;4.788;2023-04-15T14:01:08;3.40;;;1.40;;
47219;SDS011;32961;51.936;4.788;2023-04-15T14:03:37;7.32;;;1.50;;
47219;SDS011;32961;51.936;4.788;2023-04-15T14:06:05;4.38;;;1.58;;
47219;SDS011;32961;51.936;4.788;2023-04-15T14:08:40;4.38;;;1.30;;
47219;SDS011;32961;51.936;4.788;2023-04-15T14:11:09;4.68;;;1.90;;
47219;SDS011;32961;51.936;4.788;2023-04-15T14:13:36;2.88;;;1.60;;
47219;SDS011;32961;51.936;4.788;2023-04-15T14:16:06;2.92;;;1.48;;
47219;SDS011;32961;51.936;4.788;2023-04-15T14:18:40;4.10;;;1.70;;
47219;SDS011;32961;51.936;4.788;2023-04-15T14:21:07;5.20;;;1.60;;
47219;SDS011;32961;51.936;4.788;2023-04-15T14:23:35;2.88;;;1.60;;
47219;SDS011;32961;51.936;4.788;2023-04-15T14:26:03;6.57;;;1.90;;
47219;SDS011;32961;51.936;4.788;2023-04-15T14:28:31;2.80;;;1.50;;
47219;SDS011;32961;51.936;4.788;2023-04-15T14:30:59;11.50;;;1.92;;
47219;SDS011;32961;51.936;4.788;2023-04-15T14:33:27;5.15;;;1.17;;
47219;SDS011;32961;51.936;4.788;2023-04-15T14:35:57;1.48;;;0.93;;
47219;SDS011;32961;51.936;4.788;2023-04-15T14:38:24;5.78;;;1.23;;
47219;SDS011;32961;51.936;4.788;2023-04-15T14:40:52;2.28;;;1.40;;
47219;SDS011;32961;51.936;4.788;2023-04-15T14:43:20;4.80;;;1.38;;
47219;SDS011;32961;51.936;4.788;2023-04-15T14:45:48;4.22;;;1.20;;
47219;SDS011;32961;51.936;4.788;2023-04-15T14:48:20;3.70;;;1.10;;
47219;SDS011;32961;51.936;4.788;2023-04-15T14:50:48;7.00;;;1.48;;
47219;SDS011;32961;51.936;4.788;2023-04-15T14:53:19;3.88;;;1.00;;
47219;SDS011;32961;51.936;4.788;2023-04-15T14:55:46;3.58;;;1.17;;
47219;SDS011;32961;51.936;4.788;2023-04-15T14:58:14;1.60;;;1.00;;
47219;SDS011;32961;51.936;4.788;2023-04-15T15:00:42;3.55;;;1.23;;
47219;SDS011;32961;51.936;4.788;2023-04-15T15:03:10;5.57;;;1.45;;
47219;SDS011;32961;51.936;4.788;2023-04-15T15:05:40;3.28;;;1.17;;
47219;SDS011;32961;51.936;4.788;2023-04-15T15:08:09;3.88;;;1.50;;
47219;SDS011;32961;51.936;4.788;2023-04-15T15:10:38;1.50;;;1.10;;
47219;SDS011;32961;51.936;4.788;2023-04-15T15:13:15;4.15;;;1.08;;
47219;SDS011;32961;51.936;4.788;2023-04-15T15:15:46;5.10;;;1.30;;
47219;SDS011;32961;51.936;4.788;2023-04-15T15:18:15;3.58;;;1.75;;
47219;SDS011;32961;51.936;4.788;2023-04-15T15:20:46;4.57;;;1.33;;